Time;durP1;ratioP1;P1;durP2;ratioP2;P2;SDS_P1;SDS_P2;PMS_P1;PMS_P2;Temp;Humidity;BMP_temperature;BMP_pressure;BME280_temperature;BME280_humidity;BME280_pressure;Samples;Min_cycle;Max_cycle;Signal;HPM_P1;HPM_P2
2022/08/19 00:02:21;;;;;;;;;;;16.90;99.90;;;;;;5028514;28;19928;-71
2022/08/19 00:04:48;;;;;;;;;;;16.90;99.90;;;;;;5029450;28;20386;-71
2022/08/19 00:07:13;;;;;;;;;;;16.90;99.90;;;;;;5027830;28;19925;-71
2022/08/19 00:09:39;;;;;;;;;;;16.90;99.90;;;;;;5029535;28;19921;-71
2022/08/19 00:12:05;;;;;;;;;;;16.80;99.90;;;;;;5028345;28;19928;-71
2022/08/19 00:14:31;;;;;;;;;;;16.90;99.90;;;;;;5029466;28;19921;-71
2022/08/19 00:16:56;;;;;;;;;;;16.80;99.90;;;;;;5028895;28;20383;-71
2022/08/19 00:19:23;;;;;;;;;;;16.80;99.90;;;;;;5028916;28;19921;-70
2022/08/19 00:21:49;;;;;;;;;;;16.70;99.90;;;;;;5028498;28;20376;-70
2022/08/19 00:24:15;;;;;;;;;;;16.70;99.90;;;;;;5029507;28;20016;-70
2022/08/19 00:26:41;;;;;;;;;;;16.70;99.90;;;;;;5028968;28;19928;-71
2022/08/19 00:29:08;;;;;;;;;;;16.70;99.90;;;;;;5029204;28;20380;-71
2022/08/19 00:31:33;;;;;;;;;;;16.70;99.90;;;;;;5028810;28;20019;-71
2022/08/19 00:33:59;;;;;;;;;;;16.70;99.90;;;;;;5029451;28;20020;-71
2022/08/19 00:36:25;;;;;;;;;;;16.70;99.90;;;;;;5031416;28;19928;-71
2022/08/19 00:38:51;;;;;;;;;;;16.70;99.90;;;;;;5032980;28;20029;-71
2022/08/19 00:41:20;;;;;;;;;;;16.70;99.90;;;;;;5031657;28;20442;-70
2022/08/19 00:44:01;;;;;;;;;;;16.60;99.90;;;;;;5032754;28;20668;-70
2022/08/19 00:46:27;;;;;;;;;;;16.60;99.90;;;;;;5032297;28;19995;-71
2022/08/19 00:48:53;;;;;;;;;;;16.60;99.90;;;;;;5031751;28;20026;-71
2022/08/19 00:51:19;;;;;;;;;;;16.60;99.90;;;;;;5032722;28;19925;-71
2022/08/19 00:53:45;;;;;;;;;;;16.50;99.90;;;;;;5032199;28;19925;-71
2022/08/19 00:56:10;;;;;;;;;;;16.50;99.90;;;;;;5032523;28;19921;-71
2022/08/19 00:58:36;;;;;;;;;;;16.50;99.90;;;;;;5032100;28;20075;-71
2022/08/19 01:01:03;;;;;;;;;;;16.50;99.90;;;;;;5031708;28;19921;-71
2022/08/19 01:03:28;;;;;;;;;;;16.40;99.90;;;;;;5031008;28;20311;-71
2022/08/19 01:05:54;;;;;;;;;;;16.40;99.90;;;;;;5031332;28;19932;-71
2022/08/19 01:08:20;;;;;;;;;;;16.40;99.90;;;;;;5029915;28;20160;-71
2022/08/19 01:10:51;;;;;;;;;;;16.30;99.90;;;;;;5030217;28;19928;-70
2022/08/19 01:13:18;;;;;;;;;;;16.30;99.90;;;;;;5030790;28;20007;-71
2022/08/19 01:15:49;;;;;;;;;;;16.30;99.90;;;;;;5031723;28;19921;-71
2022/08/19 01:18:16;;;;;;;;;;;16.30;99.90;;;;;;5031783;28;20024;-73
2022/08/19 01:20:42;;;;;;;;;;;16.30;99.90;;;;;;5031824;28;19978;-71
2022/08/19 01:23:08;;;;;;;;;;;16.30;99.90;;;;;;5031739;28;20272;-72
2022/08/19 01:26:00;;;;;;;;;;;16.20;99.90;;;;;;5030565;28;19924;-71
2022/08/19 01:28:27;;;;;;;;;;;16.20;99.90;;;;;;5029517;28;20020;-71
2022/08/19 01:30:53;;;;;;;;;;;16.20;99.90;;;;;;5031917;28;19921;-71
2022/08/19 01:33:19;;;;;;;;;;;16.20;99.90;;;;;;5031696;28;19983;-71
2022/08/19 01:35:44;;;;;;;;;;;16.10;99.90;;;;;;5030369;28;19964;-72
2022/08/19 01:38:18;;;;;;;;;;;16.10;99.90;;;;;;5031737;28;19967;-71
2022/08/19 01:40:44;;;;;;;;;;;16.10;99.90;;;;;;5031025;28;20642;-72
2022/08/19 01:43:10;;;;;;;;;;;16.10;99.90;;;;;;5031737;28;20012;-72
2022/08/19 01:45:40;;;;;;;;;;;16.10;99.90;;;;;;5030940;28;20346;-70
2022/08/19 01:48:05;;;;;;;;;;;16.10;99.90;;;;;;5031534;28;20011;-72
2022/08/19 01:50:32;;;;;;;;;;;16.00;99.90;;;;;;5031016;28;20016;-72
2022/08/19 01:52:59;;;;;;;;;;;16.10;99.90;;;;;;5031769;28;19925;-72
2022/08/19 01:55:25;;;;;;;;;;;16.10;99.90;;;;;;5031410;28;19960;-70
2022/08/19 01:57:53;;;;;;;;;;;16.10;99.90;;;;;;5031548;28;20003;-72
2022/08/19 02:00:20;;;;;;;;;;;16.10;99.90;;;;;;5031299;28;20299;-72
2022/08/19 02:02:46;;;;;;;;;;;16.10;99.90;;;;;;5031017;28;20722;-72
2022/08/19 02:05:11;;;;;;;;;;;16.10;99.90;;;;;;5030938;28;19928;-71
2022/08/19 02:07:38;;;;;;;;;;;16.00;99.90;;;;;;5031036;28;20012;-72
2022/08/19 02:10:05;;;;;;;;;;;16.00;99.90;;;;;;5031193;28;19921;-72
2022/08/19 02:12:31;;;;;;;;;;;16.00;99.90;;;;;;5030910;28;19925;-72
2022/08/19 02:14:56;;;;;;;;;;;16.00;99.90;;;;;;5030605;28;19927;-72
2022/08/19 02:17:22;;;;;;;;;;;16.00;99.90;;;;;;5031156;28;20272;-70
2022/08/19 02:19:48;;;;;;;;;;;15.90;99.90;;;;;;5030875;28;19929;-71
2022/08/19 02:22:14;;;;;;;;;;;15.90;99.90;;;;;;5030369;28;19925;-72
2022/08/19 02:24:39;;;;;;;;;;;15.90;99.90;;;;;;5029866;28;19929;-72
2022/08/19 02:27:05;;;;;;;;;;;15.90;99.90;;;;;;5030231;28;20434;-72
2022/08/19 02:29:31;;;;;;;;;;;15.90;99.90;;;;;;5029876;28;19925;-71
2022/08/19 02:31:56;;;;;;;;;;;15.80;99.90;;;;;;5028292;28;20331;-69
2022/08/19 02:34:22;;;;;;;;;;;15.90;99.90;;;;;;5028622;28;20431;-71
2022/08/19 02:36:47;;;;;;;;;;;15.80;99.90;;;;;;5029407;28;19996;-71
2022/08/19 02:39:13;;;;;;;;;;;15.80;99.90;;;;;;5030497;28;19975;-70
2022/08/19 02:41:38;;;;;;;;;;;15.70;99.90;;;;;;5030542;28;20354;-70
2022/08/19 02:44:04;;;;;;;;;;;15.70;99.90;;;;;;5030309;28;19921;-70
2022/08/19 02:46:31;;;;;;;;;;;15.70;99.90;;;;;;5030030;28;20294;-69
2022/08/19 02:48:58;;;;;;;;;;;15.70;99.90;;;;;;5030517;28;19944;-69
2022/08/19 02:51:28;;;;;;;;;;;15.60;99.90;;;;;;5029888;28;20346;-70
2022/08/19 02:53:54;;;;;;;;;;;15.70;99.90;;;;;;5030345;28;19975;-70
2022/08/19 02:56:20;;;;;;;;;;;15.60;99.90;;;;;;5030225;28;19921;-69
2022/08/19 02:58:46;;;;;;;;;;;15.60;99.90;;;;;;5030064;28;19925;-69
2022/08/19 03:01:18;;;;;;;;;;;15.60;99.90;;;;;;5028435;28;19921;-70
2022/08/19 03:03:44;;;;;;;;;;;15.60;99.90;;;;;;5029938;28;19925;-70
2022/08/19 03:06:14;;;;;;;;;;;15.60;99.90;;;;;;5029992;28;19944;-70
2022/08/19 03:08:41;;;;;;;;;;;15.50;99.90;;;;;;5029693;28;19928;-69
2022/08/19 03:11:12;;;;;;;;;;;15.50;99.90;;;;;;5029634;28;20299;-70
2022/08/19 03:13:37;;;;;;;;;;;15.50;99.90;;;;;;5029268;28;19921;-70
2022/08/19 03:16:04;;;;;;;;;;;15.50;99.90;;;;;;5029824;28;19932;-69
2022/08/19 03:18:30;;;;;;;;;;;15.50;99.90;;;;;;5029684;28;19928;-69
2022/08/19 03:20:55;;;;;;;;;;;15.50;99.90;;;;;;5029307;28;19921;-71
2022/08/19 03:23:22;;;;;;;;;;;15.40;99.90;;;;;;5029294;28;19921;-71
2022/08/19 03:25:49;;;;;;;;;;;15.40;99.90;;;;;;5029567;28;19921;-69
2022/08/19 03:28:15;;;;;;;;;;;15.40;99.90;;;;;;5029254;28;19925;-70
2022/08/19 03:30:42;;;;;;;;;;;15.40;99.90;;;;;;5029157;28;19991;-69
2022/08/19 03:33:08;;;;;;;;;;;15.40;99.90;;;;;;5029884;28;20314;-71
2022/08/19 03:35:36;;;;;;;;;;;15.40;99.90;;;;;;5029468;28;19921;-69
2022/08/19 03:38:02;;;;;;;;;;;15.30;99.90;;;;;;5029655;28;19921;-71
2022/08/19 03:40:30;;;;;;;;;;;15.30;99.90;;;;;;5029612;28;19986;-69
2022/08/19 03:42:56;;;;;;;;;;;15.30;99.90;;;;;;5029585;28;19927;-69
2022/08/19 03:45:22;;;;;;;;;;;15.30;99.90;;;;;;5029330;28;19921;-70
2022/08/19 03:47:47;;;;;;;;;;;15.30;99.90;;;;;;5028896;28;19995;-69
2022/08/19 03:50:13;;;;;;;;;;;15.20;99.90;;;;;;5029371;28;20383;-70
2022/08/19 03:52:39;;;;;;;;;;;15.20;99.90;;;;;;5029474;28;19920;-69
2022/08/19 03:55:05;;;;;;;;;;;15.20;99.90;;;;;;5029554;28;20004;-70
2022/08/19 03:57:32;;;;;;;;;;;15.30;99.90;;;;;;5028476;28;19921;-71
2022/08/19 03:59:57;;;;;;;;;;;15.20;99.90;;;;;;5029018;28;19932;-70
2022/08/19 04:02:23;;;;;;;;;;;15.20;99.90;;;;;;5029509;28;19925;-71
2022/08/19 04:04:49;;;;;;;;;;;15.20;99.90;;;;;;5029490;28;19929;-70
2022/08/19 04:07:15;;;;;;;;;;;15.20;99.90;;;;;;5029378;28;19967;-71
2022/08/19 04:09:41;;;;;;;;;;;15.20;99.90;;;;;;5031033;28;19982;-71
2022/08/19 04:12:07;;;;;;;;;;;15.20;99.90;;;;;;5032788;28;20387;-71
2022/08/19 04:14:33;;;;;;;;;;;15.20;99.90;;;;;;5032164;28;20431;-70
2022/08/19 04:16:59;;;;;;;;;;;15.20;99.90;;;;;;5033295;28;20299;-70
2022/08/19 04:19:25;;;;;;;;;;;15.20;99.90;;;;;;5032866;28;20035;-69
2022/08/19 04:21:52;;;;;;;;;;;15.20;99.90;;;;;;5033202;28;20015;-71
2022/08/19 04:24:18;;;;;;;;;;;15.20;99.90;;;;;;5032992;28;19925;-70
2022/08/19 04:26:44;;;;;;;;;;;15.20;99.90;;;;;;5033135;28;19921;-70
2022/08/19 04:29:11;;;;;;;;;;;15.10;99.90;;;;;;5032874;28;19928;-70
2022/08/19 04:31:37;;;;;;;;;;;15.10;99.90;;;;;;5032459;28;19921;-69
2022/08/19 04:34:04;;;;;;;;;;;15.10;99.90;;;;;;5032521;28;20276;-69
2022/08/19 04:36:31;;;;;;;;;;;15.10;99.90;;;;;;5032893;28;19925;-70
2022/08/19 04:38:59;;;;;;;;;;;15.10;99.90;;;;;;5032200;28;20219;-70
2022/08/19 04:44:10;;;;;;;;;;;15.10;99.90;;;;;;5032865;28;19928;-71
2022/08/19 04:46:36;;;;;;;;;;;15.10;99.90;;;;;;5032873;28;19975;-70
2022/08/19 04:49:02;;;;;;;;;;;15.10;99.90;;;;;;5032073;28;19925;-71
2022/08/19 04:51:30;;;;;;;;;;;15.10;99.90;;;;;;5032201;28;19925;-71
2022/08/19 04:53:56;;;;;;;;;;;15.10;99.90;;;;;;5032591;28;19928;-69
2022/08/19 04:56:22;;;;;;;;;;;15.10;99.90;;;;;;5032364;28;19920;-71
2022/08/19 04:58:48;;;;;;;;;;;15.10;99.90;;;;;;5031819;28;19925;-71
2022/08/19 05:01:16;;;;;;;;;;;15.20;99.90;;;;;;5032196;28;19921;-71
2022/08/19 05:03:42;;;;;;;;;;;15.20;99.90;;;;;;5032353;28;19921;-71
2022/08/19 05:06:10;;;;;;;;;;;15.20;99.90;;;;;;5031907;28;20276;-71
2022/08/19 05:08:36;;;;;;;;;;;15.20;99.90;;;;;;5032506;28;19929;-70
2022/08/19 05:11:07;;;;;;;;;;;15.30;99.90;;;;;;5031273;28;20397;-70
2022/08/19 05:13:32;;;;;;;;;;;15.30;99.90;;;;;;5031848;28;20276;-70
2022/08/19 05:15:59;;;;;;;;;;;15.40;99.90;;;;;;5032340;28;19928;-70
2022/08/19 05:23:54;;;;;;;;;;;15.50;99.90;;;;;;5030707;28;19921;-70
2022/08/19 05:26:19;;;;;;;;;;;15.50;99.90;;;;;;5031605;28;19921;-70
2022/08/19 05:28:45;;;;;;;;;;;15.60;99.90;;;;;;5032010;28;20395;-69
2022/08/19 05:31:10;;;;;;;;;;;15.60;99.90;;;;;;5030471;28;19925;-70
2022/08/19 05:33:36;;;;;;;;;;;15.70;99.90;;;;;;5032071;28;19925;-70
2022/08/19 05:36:02;;;;;;;;;;;15.80;99.90;;;;;;5031964;28;20318;-70
2022/08/19 05:38:28;;;;;;;;;;;15.80;99.90;;;;;;5031697;28;19928;-70
2022/08/19 05:40:53;;;;;;;;;;;15.90;99.90;;;;;;5031548;28;19986;-70
2022/08/19 05:43:19;;;;;;;;;;;15.90;99.90;;;;;;5031693;28;19929;-70
2022/08/19 05:45:45;;;;;;;;;;;16.00;99.90;;;;;;5031232;28;19964;-70
2022/08/19 05:48:11;;;;;;;;;;;16.00;99.90;;;;;;5031543;28;20078;-70
2022/08/19 05:50:37;;;;;;;;;;;16.10;99.90;;;;;;5031428;28;19924;-70
2022/08/19 05:53:03;;;;;;;;;;;16.20;99.90;;;;;;5031566;28;19929;-70
2022/08/19 05:55:28;;;;;;;;;;;16.30;99.90;;;;;;5030992;28;19996;-70
2022/08/19 05:57:54;;;;;;;;;;;16.30;99.90;;;;;;5031527;28;20394;-70
2022/08/19 06:00:19;;;;;;;;;;;16.40;99.90;;;;;;5031137;28;19925;-70
2022/08/19 06:02:45;;;;;;;;;;;16.50;99.90;;;;;;5031423;28;19921;-70
2022/08/19 06:05:10;;;;;;;;;;;16.50;99.90;;;;;;5030800;28;19921;-70
2022/08/19 06:07:37;;;;;;;;;;;16.60;99.90;;;;;;5031154;28;19929;-71
2022/08/19 06:10:03;;;;;;;;;;;16.60;99.90;;;;;;5030096;28;19925;-70
2022/08/19 06:12:34;;;;;;;;;;;16.70;99.90;;;;;;5031145;28;19956;-70
2022/08/19 06:15:01;;;;;;;;;;;16.80;99.90;;;;;;5030896;28;19928;-72
2022/08/19 06:17:26;;;;;;;;;;;16.80;99.90;;;;;;5030929;28;19921;-71
2022/08/19 06:19:52;;;;;;;;;;;16.90;99.90;;;;;;5030962;28;19921;-71
2022/08/19 06:22:17;;;;;;;;;;;17.00;99.90;;;;;;5031088;28;19928;-71
2022/08/19 06:24:43;;;;;;;;;;;17.00;99.90;;;;;;5030375;28;20610;-71
2022/08/19 06:27:09;;;;;;;;;;;17.10;99.90;;;;;;5029435;28;20379;-70
2022/08/19 06:29:34;;;;;;;;;;;17.10;99.90;;;;;;5030761;28;19920;-70
2022/08/19 06:32:02;;;;;;;;;;;17.20;99.90;;;;;;5029495;28;19921;-71
2022/08/19 06:34:29;;;;;;;;;;;17.30;99.90;;;;;;5030446;28;20004;-71
2022/08/19 06:36:55;;;;;;;;;;;17.30;99.90;;;;;;5029590;28;19920;-71
2022/08/19 06:39:22;;;;;;;;;;;17.40;99.90;;;;;;5030525;28;19921;-70
2022/08/19 06:41:48;;;;;;;;;;;17.40;99.90;;;;;;5030444;28;19975;-71
2022/08/19 06:44:14;;;;;;;;;;;17.50;99.90;;;;;;5030634;28;19928;-71
2022/08/19 06:46:40;;;;;;;;;;;17.60;99.90;;;;;;5029200;28;20363;-70
2022/08/19 06:49:08;;;;;;;;;;;17.60;99.90;;;;;;5030660;28;19967;-71
2022/08/19 06:51:34;;;;;;;;;;;17.70;99.90;;;;;;5030588;28;19925;-71
2022/08/19 06:54:00;;;;;;;;;;;17.80;99.90;;;;;;5030067;28;19928;-71
2022/08/19 06:56:33;;;;;;;;;;;17.80;99.90;;;;;;5030402;28;20298;-70
2022/08/19 06:59:00;;;;;;;;;;;17.90;99.90;;;;;;5030322;28;20691;-71
2022/08/19 07:01:26;;;;;;;;;;;17.90;99.90;;;;;;5030181;28;19928;-71
2022/08/19 07:03:51;;;;;;;;;;;18.00;99.90;;;;;;5029251;28;19925;-71
2022/08/19 07:06:17;;;;;;;;;;;18.10;99.90;;;;;;5029615;28;20226;-71
2022/08/19 07:08:43;;;;;;;;;;;18.20;99.90;;;;;;5030163;28;19928;-71
2022/08/19 07:11:10;;;;;;;;;;;18.20;99.90;;;;;;5030120;28;19929;-71
2022/08/19 07:13:37;;;;;;;;;;;18.30;99.90;;;;;;5030004;28;20394;-71
2022/08/19 07:16:06;;;;;;;;;;;18.40;99.90;;;;;;5030141;28;20039;-72
2022/08/19 07:18:32;;;;;;;;;;;18.60;99.90;;;;;;5029956;28;19925;-71
2022/08/19 07:21:08;;;;;;;;;;;18.60;99.90;;;;;;5029475;28;19967;-72
2022/08/19 07:23:36;;;;;;;;;;;18.70;99.90;;;;;;5029816;28;19925;-70
2022/08/19 07:26:09;;;;;;;;;;;18.80;99.90;;;;;;5029832;28;20036;-71
2022/08/19 07:28:38;;;;;;;;;;;18.90;99.90;;;;;;5029380;28;20028;-71
2022/08/19 07:31:07;;;;;;;;;;;19.00;99.90;;;;;;5029503;28;19921;-72
2022/08/19 07:33:36;;;;;;;;;;;19.00;99.90;;;;;;5029844;28;19921;-70
2022/08/19 07:36:06;;;;;;;;;;;19.10;99.90;;;;;;5029822;28;19921;-71
2022/08/19 07:38:32;;;;;;;;;;;19.20;99.90;;;;;;5028720;28;20497;-71
2022/08/19 07:40:58;;;;;;;;;;;19.30;99.90;;;;;;5029008;28;19932;-71
2022/08/19 07:43:24;;;;;;;;;;;19.40;99.90;;;;;;5029325;28;19921;-71
2022/08/19 07:45:52;;;;;;;;;;;19.40;99.90;;;;;;5029186;28;19921;-71
2022/08/19 07:48:17;;;;;;;;;;;19.50;99.90;;;;;;5029644;28;19971;-70
2022/08/19 07:50:43;;;;;;;;;;;19.60;99.90;;;;;;5029718;28;19921;-71
2022/08/19 07:53:08;;;;;;;;;;;19.70;99.90;;;;;;5029586;28;19921;-71
2022/08/19 07:55:34;;;;;;;;;;;19.70;99.90;;;;;;5028959;28;20557;-72
2022/08/19 07:57:59;;;;;;;;;;;19.80;99.90;;;;;;5029645;28;19921;-72
2022/08/19 08:00:25;;;;;;;;;;;19.80;99.90;;;;;;5029370;28;19927;-71
2022/08/19 08:02:52;;;;;;;;;;;19.90;99.90;;;;;;5029584;28;19928;-72
2022/08/19 08:10:46;;;;;;;;;;;20.20;99.90;;;;;;5029545;28;20011;-71
2022/08/19 08:13:11;;;;;;;;;;;20.30;99.90;;;;;;5028927;28;20003;-71
2022/08/19 08:15:38;;;;;;;;;;;20.40;99.90;;;;;;5028236;28;19932;-69
2022/08/19 08:18:04;;;;;;;;;;;20.50;99.90;;;;;;5028627;28;19933;-70
2022/08/19 08:20:30;;;;;;;;;;;20.50;99.90;;;;;;5028187;28;19921;-69
2022/08/19 08:25:39;;;;;;;;;;;20.70;99.90;;;;;;5028008;28;19921;-69
2022/08/19 08:28:05;;;;;;;;;;;20.80;99.90;;;;;;5028340;28;19928;-71
2022/08/19 08:30:32;;;;;;;;;;;20.90;99.90;;;;;;5028353;28;19925;-70
2022/08/19 08:32:58;;;;;;;;;;;20.90;99.90;;;;;;5028454;28;19928;-70
2022/08/19 08:35:24;;;;;;;;;;;21.00;99.90;;;;;;5028552;28;19983;-70
2022/08/19 08:37:51;;;;;;;;;;;21.20;99.90;;;;;;5028076;28;19921;-70
2022/08/19 08:40:28;;;;;;;;;;;21.20;99.90;;;;;;5026964;28;19925;-72
2022/08/19 08:43:12;;;;;;;;;;;21.30;99.90;;;;;;5028243;28;19931;-70
2022/08/19 08:45:48;;;;;;;;;;;21.40;99.90;;;;;;5028042;28;19925;-70
2022/08/19 08:48:20;;;;;;;;;;;21.50;99.90;;;;;;5028078;28;19921;-70
2022/08/19 08:50:47;;;;;;;;;;;21.60;99.90;;;;;;5027792;28;19943;-70
2022/08/19 08:53:13;;;;;;;;;;;21.60;99.90;;;;;;5027964;28;20040;-72
2022/08/19 08:55:40;;;;;;;;;;;21.70;99.90;;;;;;5029799;28;20379;-70
2022/08/19 08:58:20;;;;;;;;;;;21.70;99.90;;;;;;5032297;28;20398;-70
2022/08/19 09:00:47;;;;;;;;;;;21.80;99.90;;;;;;5019824;28;20287;-71
2022/08/19 09:03:21;;;;;;;;;;;21.90;99.90;;;;;;5031824;28;19920;-71
2022/08/19 09:05:56;;;;;;;;;;;22.00;99.90;;;;;;5032352;28;20379;-70
2022/08/19 09:08:27;;;;;;;;;;;22.10;99.90;;;;;;5030656;28;20011;-70
2022/08/19 09:10:54;;;;;;;;;;;22.20;99.90;;;;;;5032079;28;20012;-71
2022/08/19 09:13:22;;;;;;;;;;;22.30;99.90;;;;;;5031228;28;19921;-70
2022/08/19 09:15:52;;;;;;;;;;;22.40;99.90;;;;;;5032451;28;20019;-71
2022/08/19 09:18:18;;;;;;;;;;;22.50;99.90;;;;;;5031929;28;19921;-72
2022/08/19 09:20:43;;;;;;;;;;;22.60;99.90;;;;;;5032012;28;19921;-70
2022/08/19 09:23:10;;;;;;;;;;;22.70;99.90;;;;;;5031046;28;20007;-72
2022/08/19 09:25:36;;;;;;;;;;;22.80;99.90;;;;;;5031536;28;20019;-70
2022/08/19 09:28:05;;;;;;;;;;;23.10;99.90;;;;;;5031912;28;20521;-71
2022/08/19 09:30:31;;;;;;;;;;;23.60;99.90;;;;;;5032094;28;19927;-71
2022/08/19 09:32:57;;;;;;;;;;;24.30;99.90;;;;;;5032042;28;20008;-71
2022/08/19 09:35:24;;;;;;;;;;;25.00;99.90;;;;;;5031867;28;20015;-71
2022/08/19 09:37:49;;;;;;;;;;;25.60;99.90;;;;;;5031405;28;19932;-71
2022/08/19 09:40:15;;;;;;;;;;;26.20;99.90;;;;;;5019691;28;19921;-71
2022/08/19 09:42:43;;;;;;;;;;;26.60;99.90;;;;;;5030883;28;20380;-71
2022/08/19 09:45:09;;;;;;;;;;;27.00;99.90;;;;;;5031644;28;19931;-71
2022/08/19 09:47:37;;;;;;;6.88;4.10;;;27.40;99.90;;;;;;5030649;28;19967;-71
2022/08/19 09:50:05;;;;;;;5.63;3.73;;;27.70;99.90;;;;;;5016799;28;20397;-71
2022/08/19 09:52:31;;;;;;;5.05;2.83;;;28.10;99.90;;;;;;5028943;28;21139;-71
2022/08/19 09:54:56;;;;;;;6.03;2.75;;;28.40;99.90;;;;;;5029416;28;20400;-71
2022/08/19 09:57:22;;;;;;;4.83;2.70;;;28.70;99.80;;;;;;5028432;28;20395;-71
2022/08/19 09:59:48;;;;;;;3.10;2.40;;;28.90;98.60;;;;;;5030817;28;20446;-72
2022/08/19 10:02:13;;;;;;;3.80;2.10;;;29.20;98.20;;;;;;5030454;28;20144;-71
2022/08/19 10:07:24;;;;;;;4.50;2.60;;;29.70;97.60;;;;;;5019255;28;20050;-71
2022/08/19 10:09:50;;;;;;;4.20;3.35;;;30.00;96.50;;;;;;5028173;28;20404;-71
2022/08/19 10:12:15;;;;;;;3.63;2.30;;;30.20;96.10;;;;;;5027228;28;20421;-70
2022/08/19 10:14:41;;;;;;;;;;;30.40;95.90;;;;;;5030112;28;20132;-70
2022/08/19 10:17:06;;;;;;;3.72;2.13;;;30.60;95.00;;;;;;5029877;28;20354;-70
2022/08/19 10:19:35;;;;;;;4.57;2.33;;;30.80;94.90;;;;;;5027841;28;20073;-70
2022/08/19 10:22:04;;;;;;;;;;;31.00;93.40;;;;;;5030092;28;20073;-70
2022/08/19 10:24:30;;;;;;;3.70;2.20;;;31.20;93.70;;;;;;5029813;28;19929;-70
2022/08/19 10:26:56;;;;;;;3.17;1.88;;;31.50;93.50;;;;;;5029648;28;20052;-70
2022/08/19 10:29:22;;;;;;;3.40;2.20;;;31.60;92.20;;;;;;5029858;28;20570;-70
2022/08/19 10:31:48;;;;;;;3.03;2.00;;;31.60;91.80;;;;;;5028675;28;20053;-70
2022/08/19 10:34:13;;;;;;;3.15;1.80;;;31.80;92.40;;;;;;5030401;28;20048;-70
2022/08/19 10:36:39;;;;;;;4.38;2.10;;;32.00;92.30;;;;;;5029373;28;20045;-70
2022/08/19 10:39:11;;;;;;;3.30;2.17;;;32.30;91.40;;;;;;5028935;28;20041;-71
2022/08/19 10:41:38;;;;;;;2.10;1.50;;;32.40;91.30;;;;;;5029460;28;20523;-70
2022/08/19 10:44:08;;;;;;;4.95;2.13;;;32.60;90.50;;;;;;5029015;28;20072;-70
2022/08/19 10:46:37;;;;;;;5.53;2.53;;;32.70;89.40;;;;;;5029396;28;20058;-70
2022/08/19 10:49:04;;;;;;;3.10;1.50;;;32.60;87.70;;;;;;5029143;28;20064;-70
2022/08/19 10:54:15;;;;;;;4.33;2.57;;;32.60;84.80;;;;;;5027369;28;20415;-70
2022/08/19 10:56:53;;;;;;;3.88;2.60;;;32.70;84.10;;;;;;5028574;28;20034;-71
2022/08/19 10:59:22;;;;;;;3.72;2.75;;;32.70;85.10;;;;;;5028999;28;20578;-70
2022/08/19 11:01:49;;;;;;;3.50;2.25;;;32.80;81.60;;;;;;5027389;28;20439;-70
2022/08/19 11:04:17;;;;;;;3.77;2.67;;;32.50;82.50;;;;;;5027484;28;20411;-70
2022/08/19 11:06:45;;;;;;;3.80;2.58;;;31.80;80.40;;;;;;5026112;28;20407;-70
2022/08/19 11:09:11;;;;;;;4.72;2.40;;;31.10;81.40;;;;;;5027650;28;20422;-70
2022/08/19 11:11:40;;;;;;;4.05;2.88;;;30.60;81.50;;;;;;5025632;28;20913;-70
2022/08/19 11:14:14;;;;;;;4.18;3.08;;;30.20;81.70;;;;;;5027198;28;20501;-71
2022/08/19 11:16:42;;;;;;;4.00;2.70;;;30.00;82.20;;;;;;5026960;28;20465;-70
2022/08/19 11:19:09;;;;;;;3.63;2.40;;;30.00;83.00;;;;;;5027550;28;20445;-70
2022/08/19 11:21:40;;;;;;;4.07;2.43;;;29.90;82.20;;;;;;5027788;28;20417;-70
2022/08/19 11:24:12;;;;;;;4.13;2.50;;;29.60;82.40;;;;;;5027845;28;20407;-70
2022/08/19 11:26:39;;;;;;;5.30;2.93;;;29.50;83.30;;;;;;5015882;28;20419;-70
2022/08/19 11:29:11;;;;;;;5.50;3.10;;;29.70;83.30;;;;;;5028167;28;20755;-70
2022/08/19 11:31:39;;;;;;;4.78;3.05;;;30.40;83.70;;;;;;5027785;28;20421;-70
2022/08/19 11:34:08;;;;;;;4.88;3.35;;;31.00;83.00;;;;;;5027360;28;20403;-70
2022/08/19 11:36:38;;;;;;;4.40;3.28;;;31.50;79.70;;;;;;5028726;28;20637;-70
2022/08/19 11:39:06;;;;;;;4.93;3.38;;;32.00;80.40;;;;;;5028850;28;20124;-70
2022/08/19 11:41:32;;;;;;;5.45;4.07;;;32.60;79.90;;;;;;5029111;28;20041;-70
2022/08/19 11:43:58;;;;;;;4.88;3.20;;;32.90;78.70;;;;;;5029104;28;20067;-70
2022/08/19 11:46:25;;;;;;;5.32;3.65;;;33.20;78.20;;;;;;5028801;28;20080;-70
2022/08/19 11:48:51;;;;;;;4.10;3.28;;;33.40;77.70;;;;;;5029184;28;20131;-70
2022/08/19 11:51:21;;;;;;;6.22;4.30;;;33.60;76.10;;;;;;5027913;28;20929;-70
2022/08/19 11:53:47;;;;;;;4.00;3.25;;;33.80;73.90;;;;;;5029000;28;20048;-70
2022/08/19 11:56:13;;;;;;;6.55;4.78;;;33.70;75.00;;;;;;5028210;28;20825;-70
2022/08/19 11:58:41;;;;;;;5.80;4.70;;;33.50;74.70;;;;;;5026615;28;20415;-71
2022/08/19 12:01:11;;;;;;;5.65;4.55;;;33.00;74.10;;;;;;5027588;28;20454;-70
2022/08/19 12:03:38;;;;;;;4.88;3.97;;;32.70;75.20;;;;;;5027952;28;20423;-70
2022/08/19 12:06:06;;;;;;;5.53;4.20;;;32.80;75.70;;;;;;5028094;28;20399;-70
2022/08/19 12:08:31;;;;;;;6.20;4.32;;;33.20;74.50;;;;;;5028566;28;20041;-70
2022/08/19 12:10:57;;;;;;;;;;;33.40;74.00;;;;;;5028053;28;20419;-70
2022/08/19 12:13:23;;;;;;;;;;;33.20;72.80;;;;;;5028810;28;19928;-70
2022/08/19 12:15:49;;;;;;;;;;;32.80;72.40;;;;;;5029644;28;19928;-70
2022/08/19 12:18:15;;;;;;;;;;;32.40;72.30;;;;;;5029248;28;20303;-71
2022/08/19 12:20:41;;;;;;;;;;;32.00;73.00;;;;;;5029275;28;19921;-70
2022/08/19 12:23:09;;;;;;;;;;;31.70;71.40;;;;;;5029591;28;19925;-70
2022/08/19 12:25:35;;;;;;;;;;;31.60;72.60;;;;;;5028843;28;20003;-70
2022/08/19 12:28:00;;;;;;;;;;;31.30;73.10;;;;;;5029207;28;20467;-70
2022/08/19 12:30:26;;;;;;;;;;;31.00;73.40;;;;;;5030627;28;19927;-70
2022/08/19 12:32:52;;;;;;;;;;;30.70;73.90;;;;;;5033155;28;19921;-70
2022/08/19 12:35:19;;;;;;;;;;;30.40;75.30;;;;;;5032709;28;19968;-70
2022/08/19 12:37:46;;;;;;;;;;;30.20;75.70;;;;;;5033079;28;19924;-70
2022/08/19 12:40:12;;;;;;;;;;;30.40;76.10;;;;;;5032921;28;20016;-70
2022/08/19 12:42:41;;;;;;;;;;;30.70;75.20;;;;;;5032597;28;20058;-71
2022/08/19 12:45:11;;;;;;;;;;;31.00;75.80;;;;;;5032916;28;19986;-70
2022/08/19 12:47:37;;;;;;;;;;;30.80;76.40;;;;;;5032330;28;19932;-70
2022/08/19 12:50:03;;;;;;;;;;;30.50;76.40;;;;;;5033003;28;19940;-71
2022/08/19 12:52:28;;;;;;;;;;;30.20;76.80;;;;;;5032549;28;20326;-70
2022/08/19 12:54:55;;;;;;;;;;;29.80;78.10;;;;;;5032819;28;19928;-70
2022/08/19 12:57:22;;;;;;;;;;;29.50;79.00;;;;;;5032571;28;20332;-70
2022/08/19 12:59:52;;;;;;;;;;;29.40;79.50;;;;;;5032063;28;19925;-70
2022/08/19 13:02:18;;;;;;;;;;;29.20;80.00;;;;;;5020300;28;19960;-70
2022/08/19 13:04:43;;;;;;;;;;;29.00;80.40;;;;;;5032412;28;19956;-70
2022/08/19 13:07:09;;;;;;;;;;;28.80;81.40;;;;;;5032222;28;19931;-70
2022/08/19 13:09:34;;;;;;;;;;;28.70;81.20;;;;;;5032234;28;19927;-71
2022/08/19 13:12:04;;;;;;;;;;;28.70;81.10;;;;;;5032458;28;19927;-70
2022/08/19 13:14:31;;;;;;;;;;;28.70;81.70;;;;;;5031577;28;19920;-71
2022/08/19 13:16:57;;;;;;;;;;;28.60;82.00;;;;;;5032330;28;19928;-70
2022/08/19 13:19:24;;;;;;;;;;;28.60;83.00;;;;;;5032357;28;19929;-70
2022/08/19 13:21:50;;;;;;;;;;;28.70;83.50;;;;;;5032457;28;19921;-70
2022/08/19 13:24:16;;;;;;;;;;;28.70;83.80;;;;;;5032175;28;19928;-70
2022/08/19 13:26:42;;;;;;;;;;;28.80;84.50;;;;;;5032201;28;20307;-72
2022/08/19 13:34:36;;;;;;;;;;;29.70;83.20;;;;;;5030876;28;19999;-70
2022/08/19 13:37:03;;;;;;;;;;;29.80;82.60;;;;;;5031825;28;19936;-71
2022/08/19 13:39:29;;;;;;;;;;;30.00;82.80;;;;;;5031805;28;19921;-70
2022/08/19 13:41:55;;;;;;;;;;;30.00;82.00;;;;;;5030382;28;19943;-71
2022/08/19 13:44:21;;;;;;;;;;;29.80;80.90;;;;;;5031507;28;20363;-71
2022/08/19 13:46:48;;;;;;;;;;;29.60;81.60;;;;;;5031745;28;19925;-70
2022/08/19 13:49:14;;;;;;;;;;;29.30;81.00;;;;;;5031127;28;19921;-70
2022/08/19 13:51:41;;;;;;;;;;;29.00;81.20;;;;;;5030263;28;19928;-70
2022/08/19 13:54:08;;;;;;;;;;;28.90;82.10;;;;;;5030432;28;20025;-70
2022/08/19 13:56:34;;;;;;;;;;;28.70;82.70;;;;;;5030629;28;19921;-70
2022/08/19 13:59:00;;;;;;;;;;;28.50;83.70;;;;;;5029464;28;20337;-70
2022/08/19 14:01:26;;;;;;;;;;;28.10;85.20;;;;;;5030258;28;20007;-70
2022/08/19 14:03:52;;;;;;;;;;;27.50;86.30;;;;;;5030510;28;19921;-70
2022/08/19 14:06:18;;;;;;;;;;;27.10;88.20;;;;;;5029999;28;19964;-70
2022/08/19 14:08:44;;;;;;;;;;;26.70;89.50;;;;;;5030479;28;19921;-70
2022/08/19 14:11:10;;;;;;;;;;;26.40;90.20;;;;;;5030152;28;19921;-70
2022/08/19 14:13:35;;;;;;;;;;;26.10;91.00;;;;;;5029823;28;19921;-70
2022/08/19 14:16:06;;;;;;;;;;;25.90;91.30;;;;;;5030443;28;19948;-71
2022/08/19 14:18:31;;;;;;;;;;;25.70;91.40;;;;;;5030227;28;20046;-70
2022/08/19 14:20:57;;;;;;;;;;;25.70;91.60;;;;;;5029749;28;20466;-71
2022/08/19 14:23:23;;;;;;;;;;;25.60;91.60;;;;;;5030211;28;19927;-70
2022/08/19 14:25:48;;;;;;;;;;;25.60;91.90;;;;;;5030017;28;19924;-70
2022/08/19 14:28:14;;;;;;;;;;;25.60;92.00;;;;;;5029867;28;19925;-70